Young, Canada
Current Conditions -  °F | °C
As of 4:00 AM on Sunday 25 Jan 2015 (Local Time) from CYXE Reporting Station
Broken Clouds Broken Clouds  
Wind Chill: 19°   Ceiling: 14000
Heat Index: 27°   Visibility: 15mi
Dew Point: 27°   Wind: 7mph
Humidity: 100%   Direction: 180°S
Pressure: 29.91"   Gusts: NA
Location:  51.77°N, 105.75°W
Report Text: CYXE 251000Z 18006KT 15SM BKN140 M03/M03 A2991 RMK AC7 SLP155
Loading
Personal Weather Stations






























Interactive Weather Map New forecast layout! Learn more

10-Day Weather Forecast

Advertisements
Track Severe Weather on mobile